Time;durP1;ratioP1;P1;durP2;ratioP2;P2;SDS_P1;SDS_P2;PMS_P1;PMS_P2;Temp;Humidity;BMP_temperature;BMP_pressure;BME280_temperature;BME280_humidity;BME280_pressure;Samples;Min_cycle;Max_cycle;Signal;HPM_P1;HPM_P2
2023/02/23 00:02:03;;;;;;;11.75;1.63;;;;;;;4.19;78.27;101546.50;5024962;28;20065;-48
2023/02/23 00:04:30;;;;;;;5.90;1.65;;;;;;;4.13;78.01;101534.75;5016358;28;20136;-48
2023/02/23 00:06:57;;;;;;;12.40;2.38;;;;;;;4.09;78.48;101546.56;5011172;28;20061;-52
2023/02/23 00:09:24;;;;;;;10.50;2.20;;;;;;;4.05;78.31;101554.53;5029439;28;20038;-48
2023/02/23 00:11:54;;;;;;;9.02;2.83;;;;;;;4.02;78.66;101546.06;5015933;28;20053;-48
2023/02/23 00:14:26;;;;;;;6.47;2.55;;;;;;;3.98;78.35;101551.28;5029069;28;20515;-48
2023/02/23 00:16:54;;;;;;;8.93;2.03;;;;;;;3.96;78.79;101548.03;5028311;28;20092;-48
2023/02/23 00:19:23;;;;;;;10.63;2.17;;;;;;;3.97;78.68;101560.59;5018050;28;20049;-49
2023/02/23 00:21:51;;;;;;;11.43;1.88;;;;;;;3.96;78.65;101560.88;5029519;28;20149;-49
2023/02/23 00:24:18;;;;;;;13.10;1.90;;;;;;;3.96;78.66;101564.47;5010992;28;20085;-49
2023/02/23 00:26:46;;;;;;;10.57;2.30;;;;;;;3.96;78.55;101553.50;5046822;28;20057;-49
2023/02/23 00:29:16;;;;;;;5.50;1.52;;;;;;;3.96;78.76;101569.94;5046402;28;20059;-50
2023/02/23 00:31:45;;;;;;;6.38;2.15;;;;;;;3.97;78.61;101570.75;5048250;28;20037;-55
2023/02/23 00:34:14;;;;;;;8.63;1.52;;;;;;;3.96;78.80;101580.91;5027681;28;20573;-48
2023/02/23 00:36:41;;;;;;;3.60;1.77;;;;;;;3.97;78.53;101577.03;5024645;28;20049;-51
2023/02/23 00:39:44;;;;;;;13.50;1.50;;;;;;;3.99;78.89;101579.50;5014251;28;20049;-48
2023/02/23 00:42:05;;;;;;;14.93;2.65;;;;;;;4.00;78.91;101587.44;5006724;28;20077;-48
2023/02/23 00:44:33;;;;;;;8.73;1.77;;;;;;;4.00;78.69;101589.34;5012319;28;20611;-50
2023/02/23 00:47:00;;;;;;;8.32;1.25;;;;;;;4.00;78.41;101584.69;5016819;28;20074;-52
2023/02/23 00:49:52;;;;;;;7.63;2.00;;;;;;;4.00;78.64;101587.44;5012996;28;20046;-49
2023/02/23 00:52:19;;;;;;;10.20;1.95;;;;;;;3.98;78.56;101586.91;5007615;28;20046;-48
2023/02/23 00:55:07;;;;;;;12.30;1.90;;;;;;;3.98;78.46;101586.06;5012912;28;20078;-49
2023/02/23 00:57:34;;;;;;;16.70;2.40;;;;;;;3.97;78.66;101590.72;5014907;28;20053;-48
2023/02/23 01:00:11;;;;;;;4.10;1.58;;;;;;;3.97;78.47;101581.72;5018030;28;20041;-48
2023/02/23 01:02:43;;;;;;;6.68;2.38;;;;;;;3.98;78.38;101578.69;5010393;28;20050;-51
2023/02/23 01:05:10;;;;;;;12.55;1.98;;;;;;;3.98;78.70;101584.16;5013314;28;20037;-51
2023/02/23 01:07:38;;;;;;;7.68;1.90;;;;;;;3.97;78.50;101582.50;5014176;28;20052;-53
2023/02/23 01:10:18;;;;;;;4.53;1.38;;;;;;;3.96;78.69;101575.41;5004998;28;20049;-48
2023/02/23 01:12:47;;;;;;;8.40;1.60;;;;;;;3.96;78.49;101583.63;5009341;28;20132;-49
2023/02/23 01:15:14;;;;;;;8.38;1.63;;;;;;;3.93;78.55;101592.41;5020853;28;20046;-52
2023/02/23 01:17:41;;;;;;;10.10;1.50;;;;;;;3.89;78.14;101585.84;5028840;28;20132;-48
2023/02/23 01:20:18;;;;;;;8.50;1.23;;;;;;;3.87;78.17;101596.25;5009702;28;20124;-50
2023/02/23 01:22:47;;;;;;;10.82;2.35;;;;;;;3.83;78.52;101600.66;5008901;28;20062;-48
2023/02/23 01:25:17;;;;;;;4.13;1.83;;;;;;;3.80;78.44;101592.19;5008803;28;20127;-50
2023/02/23 01:27:44;;;;;;;4.95;1.15;;;;;;;3.77;78.64;101593.56;4991371;28;20078;-49
2023/02/23 01:30:13;;;;;;;4.18;1.13;;;;;;;3.76;78.20;101596.59;5008975;28;20066;-50
2023/02/23 01:32:41;;;;;;;6.40;1.23;;;;;;;3.76;78.29;101607.53;5009141;28;20054;-48
2023/02/23 01:35:09;;;;;;;11.10;2.58;;;;;;;3.72;78.47;101607.28;5043105;28;20049;-48
2023/02/23 01:37:40;;;;;;;6.47;1.48;;;;;;;3.72;78.33;101618.22;5048315;28;20107;-48
2023/02/23 01:40:37;;;;;;;6.97;1.52;;;;;;;3.68;78.53;101611.66;5021166;28;20076;-50
2023/02/23 01:43:24;;;;;;;8.27;2.47;;;;;;;3.66;78.44;101619.34;5016154;28;20100;-48
2023/02/23 01:45:54;;;;;;;9.57;2.55;;;;;;;3.62;78.21;101624.56;5009578;28;20046;-49
2023/02/23 01:48:29;;;;;;;9.95;1.73;;;;;;;3.59;78.18;101618.81;5020993;28;20124;-50
2023/02/23 01:51:14;;;;;;;6.40;1.35;;;;;;;3.57;78.08;101631.97;5010761;28;20057;-48
2023/02/23 01:53:47;;;;;;;;;;;;;;;3.54;78.62;101632.50;5007397;28;20120;-48
2023/02/23 01:56:20;;;;;;;14.70;2.00;;;;;;;3.53;78.29;101628.13;5002975;28;20268;-48
2023/02/23 01:58:53;;;;;;;8.45;1.90;;;;;;;3.50;78.22;101643.19;5019742;28;20049;-49
2023/02/23 02:01:21;;;;;;;10.25;1.52;;;;;;;3.52;78.12;101645.66;5013177;28;20046;-48
2023/02/23 02:03:55;;;;;;;6.63;2.03;;;;;;;3.51;78.42;101644.00;5008639;28;20042;-56
2023/02/23 02:06:27;;;;;;;8.15;1.60;;;;;;;3.50;78.38;101636.88;5015569;28;20728;-49
2023/02/23 02:08:58;;;;;;;7.25;1.38;;;;;;;3.48;78.27;101633.63;5017965;28;20452;-48
2023/02/23 02:11:35;;;;;;;8.95;1.85;;;;;;;3.49;78.50;101640.75;5033326;28;20377;-51
2023/02/23 02:14:11;;;;;;;4.70;0.98;;;;;;;3.46;78.52;101641.28;5012276;28;20690;-48
2023/02/23 02:16:53;;;;;;;7.40;1.10;;;;;;;3.46;78.39;101649.50;5018900;28;20056;-48
2023/02/23 02:19:45;;;;;;;7.10;1.95;;;;;;;3.45;78.17;101656.88;4996437;28;20049;-48
2023/02/23 02:22:13;;;;;;;7.65;1.42;;;;;;;3.45;78.41;101667.00;5011864;28;20052;-49
2023/02/23 02:25:12;;;;;;;8.23;1.98;;;;;;;3.43;78.38;101669.22;5019364;28;20120;-48
2023/02/23 02:27:57;;;;;;;6.80;1.60;;;;;;;3.36;78.52;101671.41;4981652;28;20586;-50
2023/02/23 02:30:51;;;;;;;8.35;1.35;;;;;;;3.33;78.33;101675.53;5031110;28;20834;-50
2023/02/23 02:33:47;;;;;;;10.15;1.90;;;;;;;3.30;78.72;101683.44;5032145;28;20076;-51
2023/02/23 02:36:41;;;;;;;6.57;1.55;;;;;;;3.27;78.83;101684.00;5018014;28;20041;-48
2023/02/23 02:39:33;;;;;;;8.98;1.40;;;;;;;3.24;78.71;101677.16;5011521;28;20377;-48
2023/02/23 02:42:19;;;;;;;12.57;1.63;;;;;;;3.21;78.85;101687.81;5011677;28;20484;-48
2023/02/23 02:45:11;;;;;;;6.95;1.65;;;;;;;3.17;78.60;101682.09;5011625;28;20056;-49
2023/02/23 02:47:47;;;;;;;3.22;1.38;;;;;;;3.13;78.75;101680.16;5012485;28;20132;-47
2023/02/23 02:50:30;;;;;;;5.90;1.95;;;;;;;3.08;79.11;101679.06;5015143;28;20053;-48
2023/02/23 02:53:04;;;;;;;9.30;1.63;;;;;;;3.07;79.03;101682.09;5030964;28;20087;-48
2023/02/23 02:55:36;;;;;;;9.13;1.52;;;;;;;3.02;79.01;101680.16;5014413;28;20050;-48
2023/02/23 02:58:06;;;;;;;5.88;2.42;;;;;;;3.01;78.99;101683.16;5031200;28;20374;-48
2023/02/23 04:18:37;;;;;;;7.13;1.88;;;;;;;2.53;80.05;101730.91;4948153;29;20421;-48
2023/02/23 04:21:07;;;;;;;18.05;2.25;;;;;;;2.50;80.01;101733.34;4947654;29;20046;-48
2023/02/23 04:23:36;;;;;;;7.32;1.90;;;;;;;2.46;80.35;101735.81;4933717;29;20098;-51
2023/02/23 04:26:04;;;;;;;8.25;1.65;;;;;;;2.44;80.08;101732.50;4939688;29;20082;-49
2023/02/23 04:28:30;;;;;;;10.23;1.58;;;;;;;2.42;80.03;101737.41;4942093;29;20454;-51
2023/02/23 04:30:57;;;;;;;5.43;1.48;;;;;;;2.41;80.17;101739.31;4943098;29;20066;-48
2023/02/23 04:33:24;;;;;;;10.75;2.47;;;;;;;2.39;80.52;101746.97;4960994;28;20417;-48
2023/02/23 04:35:52;;;;;;;14.02;2.28;;;;;;;2.36;80.09;101752.13;4946821;29;20078;-49
2023/02/23 04:38:20;;;;;;;4.47;1.95;;;;;;;2.34;80.44;101754.31;4944508;29;20564;-51
2023/02/23 04:40:47;;;;;;;12.80;1.98;;;;;;;2.33;80.49;101744.50;4950145;29;20154;-51
2023/02/23 04:43:17;;;;;;;13.52;2.10;;;;;;;2.28;80.60;101742.53;4946953;29;20386;-48
2023/02/23 04:45:44;;;;;;;5.80;1.95;;;;;;;2.27;80.69;101751.00;4926864;29;20071;-50
2023/02/23 04:48:11;;;;;;;6.57;1.55;;;;;;;2.25;80.77;101745.00;4942013;29;20145;-48
2023/02/23 04:50:38;;;;;;;10.75;1.45;;;;;;;2.22;80.90;101740.06;4945376;29;20505;-47
2023/02/23 04:53:05;;;;;;;7.03;2.92;;;;;;;2.22;80.60;101748.25;4944249;29;20121;-50
2023/02/23 04:55:32;;;;;;;5.22;1.52;;;;;;;2.17;80.76;101746.28;4945093;29;20051;-48
2023/02/23 04:58:00;;;;;;;18.75;1.95;;;;;;;2.16;80.97;101752.03;4932357;29;20051;-47
2023/02/23 05:00:28;;;;;;;7.90;1.63;;;;;;;2.16;81.00;101760.22;4936669;29;20048;-48
2023/02/23 05:02:56;;;;;;;8.00;1.60;;;;;;;2.19;80.79;101751.50;4933481;29;20127;-51
2023/02/23 05:05:23;;;;;;;10.73;1.90;;;;;;;2.17;80.62;101742.75;4943435;29;20122;-47
2023/02/23 05:07:50;;;;;;;10.15;1.95;;;;;;;2.13;80.90;101752.56;4948398;29;20050;-48
2023/02/23 05:10:17;;;;;;;6.22;1.50;;;;;;;2.13;80.75;101747.94;4951575;28;20118;-48
2023/02/23 05:12:43;;;;;;;6.18;2.67;;;;;;;2.12;80.97;101742.75;4956579;28;20170;-48
2023/02/23 05:15:10;;;;;;;12.55;2.67;;;;;;;2.12;80.78;101742.75;4950358;29;20350;-48
2023/02/23 05:17:40;;;;;;;5.25;1.17;;;;;;;2.11;80.75;101736.44;4950212;29;20039;-51
2023/02/23 05:20:11;;;;;;;9.73;2.28;;;;;;;2.11;80.88;101732.88;4950546;29;20087;-48
2023/02/23 05:22:38;;;;;;;8.13;1.48;;;;;;;2.12;80.73;101726.34;4950325;29;20418;-48
2023/02/23 05:25:07;;;;;;;13.98;3.65;;;;;;;2.13;80.84;101719.78;4949287;29;20175;-48
2023/02/23 05:27:35;;;;;;;4.55;1.70;;;;;;;2.13;80.75;101715.16;4950445;29;20051;-47
2023/02/23 05:30:03;;;;;;;16.10;1.88;;;;;;;2.13;80.74;101703.41;4940579;29;20587;-49
2023/02/23 05:32:30;;;;;;;10.05;3.60;;;;;;;2.13;80.79;101708.84;4962065;28;20047;-48
2023/02/23 05:34:57;;;;;;;5.65;1.23;;;;;;;2.08;80.74;101725.22;4956271;28;20421;-48
2023/02/23 05:37:24;;;;;;;7.32;1.60;;;;;;;2.05;80.95;101723.00;4949746;29;20405;-48
2023/02/23 05:39:50;;;;;;;8.93;1.73;;;;;;;2.05;81.04;101723.00;4950219;29;20180;-49
2023/02/23 05:42:17;;;;;;;11.23;1.67;;;;;;;2.03;81.04;101722.47;4948965;28;20059;-47
2023/02/23 05:44:44;;;;;;;14.07;2.33;;;;;;;2.00;81.20;101731.19;4953986;29;20071;-48
2023/02/23 05:47:11;;;;;;;6.40;1.30;;;;;;;2.01;81.30;101733.66;4952180;29;20138;-47
2023/02/23 05:49:38;;;;;;;9.38;1.63;;;;;;;1.99;81.06;101730.34;4944680;29;20493;-48
2023/02/23 05:52:04;;;;;;;8.57;1.63;;;;;;;1.98;81.40;101727.91;4953734;29;20130;-47
2023/02/23 05:54:31;;;;;;;10.45;2.42;;;;;;;1.98;81.37;101738.81;4953799;29;20043;-48
2023/02/23 05:56:58;;;;;;;8.68;1.73;;;;;;;1.95;81.48;101733.88;4952757;29;20077;-48
2023/02/23 05:59:27;;;;;;;5.82;1.50;;;;;;;1.96;81.38;101730.09;4943505;29;20493;-50
2023/02/23 06:01:54;;;;;;;6.43;1.33;;;;;;;1.97;81.50;101726.25;4951794;29;20126;-49
2023/02/23 06:04:22;;;;;;;5.60;1.25;;;;;;;1.98;81.53;101727.91;4953482;29;20067;-52
2023/02/23 06:06:49;;;;;;;9.05;1.48;;;;;;;1.97;81.50;101721.63;4953045;29;20062;-47
2023/02/23 06:09:16;;;;;;;8.40;1.67;;;;;;;1.96;81.63;101722.69;4953403;29;20406;-49
2023/02/23 06:11:43;;;;;;;8.48;1.70;;;;;;;1.95;81.30;101726.53;4960464;28;20050;-54
2023/02/23 06:14:10;;;;;;;6.38;1.58;;;;;;;1.93;81.35;101725.16;4953032;29;20082;-47
2023/02/23 06:16:38;;;;;;;12.27;2.13;;;;;;;1.93;81.39;101715.06;4946462;28;20044;-50
2023/02/23 06:19:05;;;;;;;13.02;2.35;;;;;;;1.92;81.40;101728.94;4953177;29;20490;-49
2023/02/23 06:21:32;;;;;;;5.68;2.08;;;;;;;1.91;81.90;101722.66;4953246;29;20051;-48
2023/02/23 06:23:59;;;;;;;8.95;2.20;;;;;;;1.89;81.52;101729.47;4953314;29;20507;-49
2023/02/23 06:26:27;;;;;;;6.03;1.55;;;;;;;1.85;81.79;101732.72;4953469;29;20051;-47
2023/02/23 06:28:55;;;;;;;10.27;1.88;;;;;;;1.85;81.66;101735.44;4952557;29;20145;-48
2023/02/23 06:31:22;;;;;;;9.35;1.70;;;;;;;1.87;81.65;101721.56;4929926;29;20044;-47
2023/02/23 06:33:49;;;;;;;7.95;1.63;;;;;;;1.85;81.82;101718.28;4952624;28;20047;-53
2023/02/23 06:36:16;;;;;;;9.15;1.90;;;;;;;1.84;81.68;101720.19;4943914;29;20471;-49
2023/02/23 06:38:43;;;;;;;9.75;2.35;;;;;;;1.85;82.32;101719.06;4938934;29;20047;-49
2023/02/23 06:41:11;;;;;;;7.18;1.65;;;;;;;1.85;82.02;101726.47;4941038;29;20433;-54
2023/02/23 06:43:37;;;;;;;9.00;2.10;;;;;;;1.82;81.86;101738.75;4948763;29;20131;-47
2023/02/23 06:46:05;;;;;;;8.27;1.73;;;;;;;1.81;82.12;101741.72;4965282;28;20043;-49
2023/02/23 06:48:31;;;;;;;10.15;2.05;;;;;;;1.77;82.17;101746.88;4937009;29;20103;-48
2023/02/23 06:50:58;;;;;;;8.57;2.45;;;;;;;1.76;82.10;101728.03;4952188;29;20071;-48
2023/02/23 06:53:26;;;;;;;15.73;2.65;;;;;;;1.74;81.94;101738.41;4952552;28;20051;-48
2023/02/23 06:55:52;;;;;;;9.55;2.22;;;;;;;1.72;82.06;101743.31;4935262;29;20090;-47
2023/02/23 06:58:19;;;;;;;7.68;1.55;;;;;;;1.71;82.30;101747.94;4951968;29;20054;-47
2023/02/23 07:00:46;;;;;;;9.60;1.75;;;;;;;1.71;82.02;101753.41;4952600;29;20071;-47
2023/02/23 07:03:13;;;;;;;11.57;2.33;;;;;;;1.71;81.99;101758.03;4934078;29;20417;-54
2023/02/23 07:05:39;;;;;;;12.75;2.08;;;;;;;1.70;82.16;101770.84;4951894;29;20055;-47
2023/02/23 07:08:06;;;;;;;8.55;2.13;;;;;;;1.71;82.33;101758.84;4920647;29;20079;-48
2023/02/23 07:10:33;;;;;;;8.30;2.72;;;;;;;1.73;82.38;101770.31;4929002;28;20050;-48
2023/02/23 07:13:00;;;;;;;7.97;2.53;;;;;;;1.75;82.16;101779.06;4951927;28;20050;-49
2023/02/23 07:15:27;;;;;;;8.57;2.42;;;;;;;1.74;82.23;101774.72;4945529;29;20197;-50
2023/02/23 07:17:55;;;;;;;9.50;2.70;;;;;;;1.75;82.06;101779.06;4944943;29;20059;-48
2023/02/23 07:20:22;;;;;;;10.85;2.15;;;;;;;1.73;82.47;101792.16;4949052;29;20138;-48
2023/02/23 07:22:49;;;;;;;8.05;2.85;;;;;;;1.75;82.43;101792.72;4941462;29;20054;-47
2023/02/23 07:25:16;;;;;;;12.93;2.08;;;;;;;1.74;82.11;101799.28;4935925;29;20048;-55
2023/02/23 07:27:44;;;;;;;8.40;1.90;;;;;;;1.74;82.34;101793.81;4941148;29;20082;-48
2023/02/23 07:30:11;;;;;;;10.05;1.65;;;;;;;1.75;82.40;101806.38;4949437;29;20047;-50
2023/02/23 07:32:38;;;;;;;17.48;2.60;;;;;;;1.74;82.47;101804.75;4937644;29;20464;-47
2023/02/23 07:35:06;;;;;;;11.20;3.15;;;;;;;1.74;82.52;101801.19;4933636;29;20053;-52
2023/02/23 07:37:33;;;;;;;6.82;1.80;;;;;;;1.76;82.67;101812.66;4951794;29;20051;-48
2023/02/23 07:40:00;;;;;;;7.63;2.33;;;;;;;1.78;82.79;101815.94;4942767;29;20055;-48
2023/02/23 07:42:27;;;;;;;12.38;2.30;;;;;;;1.78;82.60;101822.22;4950836;29;20094;-50
2023/02/23 07:44:54;;;;;;;9.27;2.08;;;;;;;1.80;82.37;101828.25;4951590;29;20043;-49
2023/02/23 07:47:29;;;;;;;6.28;1.67;;;;;;;1.81;82.45;101819.00;4948855;29;20036;-49
2023/02/23 07:50:01;;;;;;;11.40;2.10;;;;;;;1.82;82.75;101826.09;4943580;29;20113;-50
2023/02/23 07:52:28;;;;;;;7.10;2.58;;;;;;;1.85;82.90;101832.94;4939458;29;20051;-51
2023/02/23 07:54:55;;;;;;;9.82;3.03;;;;;;;1.87;82.79;101830.78;4951535;29;20086;-48
2023/02/23 07:57:22;;;;;;;7.32;1.73;;;;;;;1.89;82.63;101834.06;4927634;29;20508;-54
2023/02/23 07:59:50;;;;;;;7.85;2.22;;;;;;;1.90;82.57;101843.06;4960426;28;20047;-48
2023/02/23 08:02:17;;;;;;;11.40;2.35;;;;;;;1.91;83.05;101847.47;4951353;29;20059;-48
2023/02/23 08:04:44;;;;;;;8.43;2.65;;;;;;;1.93;82.77;101851.59;4951386;29;20431;-47
2023/02/23 08:07:11;;;;;;;13.77;3.20;;;;;;;1.95;82.98;101859.50;4947632;28;20043;-49
2023/02/23 08:09:38;;;;;;;9.27;1.95;;;;;;;1.97;83.04;101849.13;4936571;29;20518;-52
2023/02/23 08:12:05;;;;;;;13.77;2.60;;;;;;;1.99;82.77;101861.44;4938203;28;20486;-48
2023/02/23 08:14:32;;;;;;;7.40;2.88;;;;;;;2.00;82.99;101862.28;4940464;29;20051;-49
2023/02/23 08:17:00;;;;;;;10.00;2.50;;;;;;;2.01;83.22;101853.84;4949402;29;20098;-50
2023/02/23 08:19:27;;;;;;;19.50;5.78;;;;;;;2.03;82.87;101850.81;4947454;29;20036;-47
2023/02/23 08:21:55;;;;;;;19.25;8.85;;;;;;;2.09;83.19;101855.25;4943359;29;20465;-47
2023/02/23 08:24:22;;;;;;;25.55;7.15;;;;;;;2.17;83.33;101862.97;4942803;29;20141;-50
2023/02/23 08:26:49;;;;;;;13.57;3.35;;;;;;;2.24;83.35;101874.47;4941998;29;20105;-48
2023/02/23 08:29:16;;;;;;;15.70;2.67;;;;;;;2.25;82.88;101865.22;4949389;29;20188;-49
2023/02/23 08:31:43;;;;;;;7.85;2.17;;;;;;;2.29;83.08;101877.25;4948817;28;20098;-47
2023/02/23 08:34:10;;;;;;;14.20;2.55;;;;;;;2.27;83.06;101865.75;4956289;28;20074;-48
2023/02/23 08:36:38;;;;;;;12.95;2.20;;;;;;;2.30;83.17;101868.78;4950728;29;20500;-48
2023/02/23 08:39:06;;;;;;;14.20;2.72;;;;;;;2.34;83.50;101875.38;4950950;29;20050;-49
2023/02/23 08:41:33;;;;;;;12.15;2.50;;;;;;;2.38;83.41;101870.22;4965598;28;20071;-48
2023/02/23 08:44:00;;;;;;;8.93;2.10;;;;;;;2.40;83.45;101862.56;4951068;29;20453;-49
2023/02/23 08:46:27;;;;;;;23.77;3.53;;;;;;;2.44;83.20;101858.22;4950578;29;20071;-48
2023/02/23 08:48:55;;;;;;;9.73;2.20;;;;;;;2.49;83.37;101866.44;4949556;29;20071;-47
2023/02/23 08:51:22;;;;;;;11.80;2.85;;;;;;;2.53;83.48;101861.28;4951180;29;20118;-48
2023/02/23 08:53:49;;;;;;;20.05;3.55;;;;;;;2.56;83.20;101858.84;4950851;29;20065;-48
2023/02/23 08:56:16;;;;;;;11.90;2.83;;;;;;;2.60;83.49;101868.16;4950440;29;20047;-48
2023/02/23 08:58:42;;;;;;;10.60;2.67;;;;;;;2.64;83.22;101872.00;4950217;29;20043;-47
2023/02/23 09:01:17;;;;;;;17.75;3.38;;;;;;;2.66;83.59;101855.34;4950488;29;20461;-49
2023/02/23 09:03:45;;;;;;;9.43;2.17;;;;;;;2.70;83.51;101870.13;4950462;29;20053;-49
2023/02/23 09:06:16;;;;;;;14.35;2.72;;;;;;;2.74;83.13;101869.31;4949588;29;20441;-49
2023/02/23 09:08:44;;;;;;;9.73;1.83;;;;;;;2.78;83.39;101873.16;4950421;29;20098;-48
2023/02/23 09:11:10;;;;;;;13.40;2.83;;;;;;;2.82;83.26;101887.97;4956035;28;20055;-49
2023/02/23 09:13:37;;;;;;;10.88;2.78;;;;;;;2.88;83.26;101881.44;4950470;28;20063;-48
2023/02/23 09:16:06;;;;;;;11.68;2.30;;;;;;;2.93;83.43;101872.44;4950213;29;20134;-48
2023/02/23 09:18:34;;;;;;;10.43;2.72;;;;;;;2.98;83.34;101881.47;4950081;28;20047;-48
2023/02/23 09:21:07;;;;;;;14.40;2.53;;;;;;;3.05;83.16;101884.78;4953979;29;20829;-48
2023/02/23 09:23:34;;;;;;;13.50;2.47;;;;;;;3.10;83.51;101878.50;4953630;29;20137;-48
2023/02/23 09:26:05;;;;;;;11.50;2.95;;;;;;;3.17;83.51;101881.81;4954280;29;20053;-49
2023/02/23 09:28:33;;;;;;;15.18;3.58;;;;;;;3.23;83.25;101877.19;4954321;29;20047;-48
2023/02/23 09:31:08;;;;;;;12.35;4.22;;;;;;;3.28;83.03;101879.94;4954306;29;20051;-48
2023/02/23 09:33:35;;;;;;;14.85;3.85;;;;;;;3.33;83.02;101880.78;4958593;28;20464;-48
2023/02/23 09:36:17;;;;;;;6.57;2.13;;;;;;;3.40;83.49;101883.25;4955777;28;20067;-50
2023/02/23 09:38:45;;;;;;;18.63;3.22;;;;;;;3.47;83.34;101883.81;4953870;29;20497;-47
2023/02/23 09:41:56;;;;;;;12.10;3.35;;;;;;;3.55;83.43;101881.38;4953322;29;20051;-48
2023/02/23 09:45:04;;;;;;;8.13;2.53;;;;;;;3.63;83.04;101883.56;4955719;28;20046;-48
2023/02/23 09:48:03;;;;;;;17.23;2.78;;;;;;;3.72;82.91;101883.88;4932120;29;20204;-48
2023/02/23 09:50:33;;;;;;;17.65;3.65;;;;;;;3.77;82.75;101878.41;4932573;29;20075;-48
2023/02/23 09:53:03;;;;;;;9.07;2.17;;;;;;;3.84;82.80;101892.63;4930843;29;20063;-48
2023/02/23 09:55:31;;;;;;;14.88;4.10;;;;;;;3.89;82.60;101897.31;4953441;29;20510;-51
2023/02/23 09:58:07;;;;;;;12.60;2.42;;;;;;;3.95;82.60;101897.03;4953024;29;20051;-47
2023/02/23 10:00:42;;;;;;;8.23;3.42;;;;;;;4.00;82.72;101894.28;4952800;28;20410;-47
2023/02/23 10:03:18;;;;;;;10.27;2.60;;;;;;;4.07;82.60;101900.34;4953481;29;20098;-51
2023/02/23 10:05:52;;;;;;;13.07;2.45;;;;;;;4.13;83.02;101888.28;4952575;29;20058;-48
2023/02/23 10:08:21;;;;;;;5.93;1.60;;;;;;;4.22;82.64;101894.84;4953748;29;20043;-48
2023/02/23 10:11:03;;;;;;;13.02;2.28;;;;;;;4.29;82.88;101892.66;4958689;28;20105;-49
2023/02/23 10:13:45;;;;;;;9.30;1.75;;;;;;;4.37;82.56;101887.72;4952667;28;20607;-48
2023/02/23 10:16:53;;;;;;;14.35;3.03;;;;;;;4.46;82.45;101886.06;4953605;29;20138;-47
2023/02/23 10:19:41;;;;;;;14.68;2.08;;;;;;;4.52;82.33;101884.94;4947443;29;20054;-48
2023/02/23 10:22:11;;;;;;;12.90;2.58;;;;;;;4.58;82.28;101890.13;4953391;29;20134;-50
2023/02/23 10:24:42;;;;;;;13.30;2.50;;;;;;;4.66;82.15;101888.78;4940559;29;20047;-48
2023/02/23 10:27:14;;;;;;;18.00;4.10;;;;;;;4.73;82.06;101889.28;4953392;29;22018;-47
2023/02/23 10:29:46;;;;;;;13.55;2.53;;;;;;;4.77;81.70;101887.63;4939399;29;20047;-48
2023/02/23 10:32:21;;;;;;;10.23;2.28;;;;;;;4.82;81.81;101884.88;4952680;29;20508;-52
2023/02/23 10:34:52;;;;;;;5.82;1.70;;;;;;;4.85;81.88;101879.66;4959892;28;20452;-48
2023/02/23 10:37:19;;;;;;;21.30;3.75;;;;;;;4.88;81.85;101881.84;4952883;29;20120;-47
2023/02/23 10:39:48;;;;;;;13.30;2.55;;;;;;;4.92;81.62;101887.59;4953420;29;20082;-47
2023/02/23 10:42:21;;;;;;;9.45;2.20;;;;;;;4.97;81.85;101890.31;4952797;29;20484;-47
2023/02/23 10:44:49;;;;;;;5.55;2.22;;;;;;;5.02;81.68;101890.31;4953380;29;20126;-47
2023/02/23 10:47:23;;;;;;;17.33;4.00;;;;;;;5.09;81.66;101890.81;4952375;29;20097;-50
2023/02/23 10:49:55;;;;;;;12.60;2.58;;;;;;;5.16;81.44;101890.53;4936288;29;20468;-47
2023/02/23 10:52:50;;;;;;;11.70;3.08;;;;;;;5.25;81.58;101900.63;4952531;29;20069;-49
2023/02/23 10:55:24;;;;;;;6.45;2.42;;;;;;;5.32;81.13;101895.63;4952362;29;20556;-47
2023/02/23 10:58:02;;;;;;;10.65;1.83;;;;;;;5.38;80.83;101900.00;4952922;29;20098;-49
2023/02/23 11:00:32;;;;;;;9.90;2.25;;;;;;;5.44;80.54;101898.88;4951967;29;20035;-47
2023/02/23 11:03:02;;;;;;;15.63;2.30;;;;;;;5.51;80.59;101893.91;4952134;29;20138;-49
2023/02/23 11:05:57;;;;;;;13.00;2.10;;;;;;;5.59;80.32;101895.22;4952403;29;20035;-47
2023/02/23 11:08:33;;;;;;;9.27;2.25;;;;;;;5.66;80.28;101892.16;4949144;29;20039;-47
2023/02/23 11:11:17;;;;;;;13.18;2.08;;;;;;;5.72;80.18;101897.34;4958983;28;20342;-48
2023/02/23 11:13:48;;;;;;;7.55;1.95;;;;;;;5.77;79.97;101897.28;4942744;29;20425;-48
2023/02/23 11:16:18;;;;;;;11.75;2.33;;;;;;;5.82;79.65;101899.22;4952176;29;20043;-52
2023/02/23 11:18:59;;;;;;;7.15;1.95;;;;;;;5.85;79.67;101884.94;4950240;29;20127;-51
2023/02/23 11:21:37;;;;;;;15.35;2.25;;;;;;;5.88;79.56;101889.84;4951592;29;20047;-45
2023/02/23 11:24:25;;;;;;;15.10;2.85;;;;;;;5.91;79.32;101886.53;4932383;29;20450;-45
2023/02/23 11:26:56;;;;;;;11.43;2.00;;;;;;;5.95;79.50;101885.69;4952177;29;20121;-45
2023/02/23 11:29:34;;;;;;;13.50;2.30;;;;;;;6.00;79.17;101885.63;4933534;29;20182;-46
2023/02/23 11:32:25;;;;;;;9.75;2.55;;;;;;;6.04;78.92;101880.38;4951893;29;20289;-46
2023/02/23 11:35:10;;;;;;;10.98;2.25;;;;;;;6.07;78.79;101877.03;4958266;28;20082;-46
2023/02/23 11:37:37;;;;;;;8.82;2.80;;;;;;;6.09;78.57;101878.41;4951792;29;20079;-46
2023/02/23 11:40:38;;;;;;;14.48;2.60;;;;;;;6.16;78.70;101866.25;4950943;28;20553;-45
2023/02/23 11:43:06;;;;;;;16.60;4.50;;;;;;;6.20;78.45;101873.63;4952133;29;20086;-49
2023/02/23 11:45:46;;;;;;;19.80;2.20;;;;;;;6.23;78.33;101866.72;4951742;29;20050;-47
2023/02/23 11:48:22;;;;;;;7.63;1.77;;;;;;;6.26;78.10;101877.16;4951830;29;20059;-47
2023/02/23 11:50:49;;;;;;;11.50;2.30;;;;;;;6.30;77.82;101872.75;4951775;29;20130;-46
2023/02/23 11:53:28;;;;;;;14.02;3.10;;;;;;;6.30;77.70;101861.75;4951376;29;20063;-46
2023/02/23 11:56:01;;;;;;;13.55;2.20;;;;;;;6.29;77.62;101860.09;4949479;29;20430;-46
2023/02/23 11:58:48;;;;;;;7.13;2.50;;;;;;;6.31;77.54;101855.94;4951613;29;20064;-46
2023/02/23 12:01:23;;;;;;;13.77;3.17;;;;;;;6.38;77.41;101855.63;4951289;29;20070;-46
2023/02/23 12:03:55;;;;;;;8.25;1.85;;;;;;;6.42;77.36;101849.22;4939533;29;20454;-46
2023/02/23 12:06:35;;;;;;;15.95;2.72;;;;;;;6.47;77.32;101857.44;4951307;29;20043;-47
2023/02/23 12:09:28;;;;;;;17.40;3.10;;;;;;;6.50;77.15;101856.84;4951167;29;20122;-49
2023/02/23 12:12:14;;;;;;;7.38;1.58;;;;;;;6.53;77.06;101856.28;4957994;28;20066;-51
2023/02/23 12:14:58;;;;;;;10.00;2.63;;;;;;;6.59;77.15;101849.59;4947987;29;20039;-46
2023/02/23 12:17:31;;;;;;;14.73;3.30;;;;;;;6.64;77.07;101841.31;4949191;29;20039;-50
2023/02/23 12:20:24;;;;;;;10.80;2.00;;;;;;;6.69;76.94;101846.75;4938736;29;20532;-47
2023/02/23 12:22:53;;;;;;;;;;;;;;;6.71;76.97;101839.00;4951622;29;20051;-48
2023/02/23 12:25:39;;;;;;;12.25;2.95;;;;;;;6.80;76.67;101828.19;4951119;29;20033;-47
2023/02/23 12:28:37;;;;;;;6.60;2.28;;;;;;;6.85;76.40;101836.38;4930780;29;20429;-50
2023/02/23 12:31:24;;;;;;;7.78;1.42;;;;;;;6.89;76.53;101815.38;4941190;29;20070;-46
2023/02/23 12:34:09;;;;;;;7.20;1.40;;;;;;;6.95;76.19;101818.91;4956918;28;20106;-47
2023/02/23 12:36:42;;;;;;;12.95;1.90;;;;;;;7.05;76.45;101816.00;4951122;29;20093;-47
2023/02/23 12:39:21;;;;;;;8.02;1.48;;;;;;;7.11;76.17;101801.06;4949491;29;20466;-46
2023/02/23 12:41:59;;;;;;;7.35;1.52;;;;;;;7.20;76.09;101799.31;4950751;29;20126;-53
2023/02/23 12:44:51;;;;;;;7.35;1.67;;;;;;;7.31;75.77;101806.28;4951117;29;20422;-46
2023/02/23 12:47:26;;;;;;;4.97;1.27;;;;;;;7.43;75.25;101814.09;4950109;29;20441;-48
2023/02/23 12:50:06;;;;;;;10.43;2.45;;;;;;;7.48;74.64;101806.59;4950756;29;20405;-46
2023/02/23 12:52:37;;;;;;;6.18;1.67;;;;;;;7.55;74.28;101801.50;4950225;28;20498;-47
2023/02/23 12:55:10;;;;;;;9.47;2.33;;;;;;;7.63;74.19;101798.06;4950897;29;20495;-46
2023/02/23 12:57:51;;;;;;;10.27;1.65;;;;;;;7.71;73.83;101786.38;4951150;29;20058;-48
2023/02/23 13:00:44;;;;;;;4.50;2.35;;;;;;;7.77;73.50;101782.41;4930931;29;20062;-50
2023/02/23 13:03:40;;;;;;;16.30;4.88;;;;;;;7.84;72.96;101782.84;4945381;29;20065;-53
2023/02/23 13:06:21;;;;;;;5.80;1.42;;;;;;;7.87;72.68;101776.72;4953123;28;20047;-47
2023/02/23 13:08:58;;;;;;;21.40;2.17;;;;;;;7.90;72.58;101765.09;4939190;29;20055;-47
2023/02/23 13:11:49;;;;;;;6.90;1.60;;;;;;;7.99;72.17;101776.25;4957725;28;20086;-48
2023/02/23 13:14:34;;;;;;;6.75;1.23;;;;;;;8.08;71.75;101766.16;4949996;29;20035;-49